Time;durP1;ratioP1;P1;durP2;ratioP2;P2;SDS_P1;SDS_P2;PMS_P1;PMS_P2;Temp;Humidity;BMP_temperature;BMP_pressure;BME280_temperature;BME280_humidity;BME280_pressure;Samples;Min_cycle;Max_cycle;Signal;HPM_P1;HPM_P2
2022/03/13 00:02:16;;;;;;;4.28;2.10;;;22.60;39.30;;;;;;5001783;28;20037;-67
2022/03/13 00:04:49;;;;;;;2.95;1.90;;;22.60;39.30;;;;;;5002314;28;20616;-68
2022/03/13 00:07:19;;;;;;;3.13;1.83;;;22.50;39.30;;;;;;5001041;28;20044;-68
2022/03/13 00:09:48;;;;;;;3.35;1.90;;;22.50;39.30;;;;;;4998582;28;20026;-65
2022/03/13 00:12:15;;;;;;;;;;;22.50;39.30;;;;;;5000937;28;20034;-68
2022/03/13 00:14:44;;;;;;;3.10;1.80;;;22.50;39.30;;;;;;5000310;28;19909;-64
2022/03/13 00:17:16;;;;;;;4.38;2.22;;;22.50;39.30;;;;;;5001076;28;20049;-68
2022/03/13 00:19:42;;;;;;;4.00;2.03;;;22.40;39.30;;;;;;5004145;28;20129;-69
2022/03/13 00:22:09;;;;;;;3.50;1.90;;;22.40;39.30;;;;;;5002452;28;20474;-68
2022/03/13 00:24:35;;;;;;;3.67;1.90;;;22.40;39.30;;;;;;5001431;28;20030;-69
2022/03/13 00:27:01;;;;;;;3.45;1.70;;;22.40;39.40;;;;;;5000079;28;20026;-68
2022/03/13 00:29:27;;;;;;;4.30;1.75;;;22.40;39.40;;;;;;5000704;28;20075;-65
2022/03/13 00:31:53;;;;;;;3.40;1.50;;;22.30;39.30;;;;;;4999947;28;20042;-68
2022/03/13 00:34:19;;;;;;;3.75;1.85;;;22.30;39.40;;;;;;5001131;28;20441;-64
2022/03/13 00:36:45;;;;;;;3.80;1.88;;;22.30;39.40;;;;;;5001896;28;20274;-68
2022/03/13 00:39:11;;;;;;;2.50;1.40;;;22.30;39.40;;;;;;5000928;28;20403;-69
2022/03/13 00:41:38;;;;;;;3.60;1.80;;;22.20;39.40;;;;;;4999788;28;20812;-65
2022/03/13 00:44:05;;;;;;;3.28;2.00;;;22.20;39.40;;;;;;5002099;28;20054;-68
2022/03/13 00:46:31;;;;;;;2.90;1.50;;;22.20;39.40;;;;;;5000622;28;20018;-68
2022/03/13 00:48:57;;;;;;;3.42;1.50;;;22.20;39.40;;;;;;5002089;28;20414;-68
2022/03/13 00:51:22;;;;;;;2.88;1.50;;;22.20;39.40;;;;;;5003204;28;20451;-69
2022/03/13 00:53:48;;;;;;;2.65;1.40;;;22.20;39.40;;;;;;4999160;28;20048;-68
2022/03/13 00:56:14;;;;;;;2.92;1.60;;;22.10;39.40;;;;;;5002007;28;20290;-68
2022/03/13 00:58:40;;;;;;;3.20;1.40;;;22.10;39.50;;;;;;5001886;28;20105;-68
2022/03/13 01:01:06;;;;;;;2.60;1.70;;;22.10;39.40;;;;;;5003790;28;20198;-68
2022/03/13 01:03:35;;;;;;;3.13;1.40;;;22.10;39.50;;;;;;5005124;28;20048;-68
2022/03/13 01:06:01;;;;;;;2.97;1.52;;;22.10;39.50;;;;;;5006002;28;20041;-69
2022/03/13 01:08:27;;;;;;;2.83;1.60;;;22.10;39.50;;;;;;5005096;28;20387;-69
2022/03/13 01:10:54;;;;;;;2.65;1.45;;;22.10;39.50;;;;;;5004405;28;20054;-68
2022/03/13 01:13:20;;;;;;;4.03;1.80;;;22.00;39.50;;;;;;5003739;28;20073;-68
2022/03/13 01:15:49;;;;;;;2.30;1.40;;;22.00;39.50;;;;;;5004834;28;20034;-69
2022/03/13 01:18:15;;;;;;;3.20;1.50;;;22.00;39.50;;;;;;4998559;28;20030;-68
2022/03/13 01:20:41;;;;;;;2.50;1.40;;;22.00;39.50;;;;;;5007135;28;20117;-69
2022/03/13 01:23:11;;;;;;;2.70;1.77;;;22.00;39.50;;;;;;5006201;28;20639;-67
2022/03/13 01:25:38;;;;;;;2.15;1.40;;;22.00;39.50;;;;;;5006283;28;20021;-65
2022/03/13 01:28:04;;;;;;;3.10;1.75;;;21.90;39.50;;;;;;5004837;28;20033;-68
2022/03/13 01:30:30;;;;;;;2.72;1.60;;;21.90;39.50;;;;;;5006678;28;20030;-65
2022/03/13 01:32:56;;;;;;;3.10;1.40;;;21.90;39.60;;;;;;5006722;28;20059;-68
2022/03/13 01:35:23;;;;;;;2.50;1.50;;;21.90;39.50;;;;;;5005355;28;20120;-68
2022/03/13 01:37:50;;;;;;;2.30;1.30;;;21.90;39.60;;;;;;5003820;28;20030;-68
2022/03/13 01:40:23;;;;;;;2.40;1.35;;;21.80;39.50;;;;;;5002824;28;20100;-64
2022/03/13 01:42:50;;;;;;;2.40;1.35;;;21.80;39.60;;;;;;5006149;28;20080;-68
2022/03/13 01:45:18;;;;;;;2.90;1.55;;;21.80;39.60;;;;;;5005468;28;20296;-69
2022/03/13 01:47:45;;;;;;;2.95;1.45;;;21.80;39.60;;;;;;5005146;28;20044;-68
2022/03/13 01:50:12;;;;;;;2.75;1.50;;;21.80;39.60;;;;;;4996911;28;20480;-68
2022/03/13 01:52:40;;;;;;;2.83;1.40;;;21.80;39.60;;;;;;5006655;28;20053;-69
2022/03/13 01:55:07;;;;;;;2.33;1.40;;;21.70;39.60;;;;;;5003490;28;20052;-68
2022/03/13 01:57:36;;;;;;;2.22;1.23;;;21.70;39.60;;;;;;5003012;28;20034;-68
2022/03/13 02:00:09;;;;;;;2.25;1.35;;;21.70;39.70;;;;;;5001948;28;20025;-64
2022/03/13 02:02:35;;;;;;;2.17;1.33;;;21.70;39.60;;;;;;5006447;28;20414;-64
2022/03/13 02:05:01;;;;;;;2.63;1.33;;;21.70;39.70;;;;;;5004280;28;20044;-65
2022/03/13 02:07:29;;;;;;;2.38;1.35;;;21.70;39.70;;;;;;5004311;28;20116;-68
2022/03/13 02:09:55;;;;;;;3.20;1.50;;;21.60;39.60;;;;;;5000403;28;20049;-68
2022/03/13 02:12:24;;;;;;;2.58;1.50;;;21.60;39.70;;;;;;5003545;28;20082;-69
2022/03/13 02:14:51;;;;;;;2.50;1.45;;;21.60;39.70;;;;;;5003230;28;20438;-64
2022/03/13 02:17:34;;;;;;;2.75;1.40;;;21.60;39.70;;;;;;5003272;28;20062;-67
2022/03/13 02:20:02;;;;;;;1.90;1.20;;;21.60;39.70;;;;;;5004577;28;20038;-64
2022/03/13 02:22:27;;;;;;;2.17;1.30;;;21.50;39.70;;;;;;5003054;28;20038;-67
2022/03/13 02:24:53;;;;;;;1.70;1.10;;;21.60;39.80;;;;;;5002551;28;20406;-69
2022/03/13 02:27:25;;;;;;;2.45;1.38;;;21.50;39.70;;;;;;5002404;28;20600;-68
2022/03/13 02:29:51;;;;;;;1.95;1.20;;;21.50;39.70;;;;;;5001991;28;20088;-69
2022/03/13 02:32:17;;;;;;;2.78;1.52;;;21.50;39.70;;;;;;5003044;28;20430;-68
2022/03/13 02:34:43;;;;;;;2.42;1.30;;;21.50;39.70;;;;;;5003377;28;20049;-69
2022/03/13 02:37:39;;;;;;;1.85;1.20;;;21.50;39.80;;;;;;5005841;28;20095;-64
2022/03/13 02:40:06;;;;;;;2.25;1.30;;;21.40;39.70;;;;;;5002738;28;20084;-68
2022/03/13 02:42:32;;;;;;;1.83;1.27;;;21.50;39.80;;;;;;5003315;28;20038;-64
2022/03/13 02:44:57;;;;;;;2.08;1.40;;;21.40;39.80;;;;;;5001710;28;20374;-67
2022/03/13 02:47:23;;;;;;;2.17;1.25;;;21.40;39.80;;;;;;5005037;28;20038;-67
2022/03/13 02:49:49;;;;;;;2.65;1.40;;;21.40;39.80;;;;;;5003943;28;20056;-68
2022/03/13 02:52:14;;;;;;;3.90;1.40;;;21.40;39.80;;;;;;5005299;28;20152;-67
2022/03/13 02:54:40;;;;;;;2.65;1.50;;;21.40;39.90;;;;;;5002338;28;20050;-67
2022/03/13 02:57:06;;;;;;;2.47;1.40;;;21.40;39.90;;;;;;5001170;28;20034;-68
2022/03/13 02:59:31;;;;;;;2.22;1.30;;;21.40;40.10;;;;;;5000014;28;20049;-67
2022/03/13 03:02:00;;;;;;;1.88;1.20;;;21.30;39.80;;;;;;5003237;28;20044;-66
2022/03/13 03:04:26;;;;;;;2.10;1.30;;;21.30;39.90;;;;;;5003385;28;20034;-68
2022/03/13 03:06:56;;;;;;;2.15;1.27;;;21.30;39.80;;;;;;5005610;28;20030;-67
2022/03/13 03:09:23;;;;;;;2.08;1.30;;;21.30;39.90;;;;;;5002681;28;20109;-67
2022/03/13 03:11:48;;;;;;;2.35;1.23;;;21.30;39.90;;;;;;5002973;28;20100;-67
2022/03/13 03:14:15;;;;;;;2.05;1.10;;;21.30;39.90;;;;;;5009339;28;20456;-68
2022/03/13 03:16:42;;;;;;;2.17;1.35;;;21.30;39.90;;;;;;5000793;28;20034;-67
2022/03/13 03:19:07;;;;;;;2.72;1.35;;;21.30;39.90;;;;;;5002977;28;20129;-66
2022/03/13 03:21:33;;;;;;;2.00;1.20;;;21.20;39.90;;;;;;5003000;28;20109;-68
2022/03/13 03:24:00;;;;;;;2.08;1.35;;;21.20;39.90;;;;;;5000849;28;20651;-63
2022/03/13 03:26:25;;;;;;;2.15;1.10;;;21.20;40.00;;;;;;5003323;28;20049;-68
2022/03/13 03:28:51;;;;;;;1.38;1.00;;;21.20;40.00;;;;;;4999640;28;20382;-66
2022/03/13 03:31:16;;;;;;;1.90;1.30;;;21.20;40.00;;;;;;5017323;28;20137;-67
2022/03/13 03:33:43;;;;;;;2.13;1.40;;;21.20;40.00;;;;;;5002556;28;20030;-68
2022/03/13 03:36:14;;;;;;;1.98;1.10;;;21.20;40.00;;;;;;5003102;28;20516;-67
2022/03/13 03:38:39;;;;;;;2.50;1.30;;;21.20;40.00;;;;;;5001541;28;20644;-66
2022/03/13 03:41:05;;;;;;;2.42;1.40;;;21.10;40.00;;;;;;5000890;28;20061;-67
2022/03/13 03:43:31;;;;;;;2.50;1.35;;;21.20;40.00;;;;;;5000298;28;20033;-66
2022/03/13 03:45:56;;;;;;;1.77;1.15;;;21.10;40.00;;;;;;5001017;28;20441;-67
2022/03/13 03:48:22;;;;;;;1.92;1.20;;;21.20;40.00;;;;;;5003243;28;20145;-66
2022/03/13 03:50:47;;;;;;;2.22;1.40;;;21.10;40.00;;;;;;4999754;28;20171;-67
2022/03/13 03:53:13;;;;;;;2.28;1.60;;;21.10;40.00;;;;;;5001922;28;20040;-67
2022/03/13 03:55:39;;;;;;;1.88;1.13;;;21.10;40.00;;;;;;4994144;28;20506;-67
2022/03/13 03:58:04;;;;;;;1.83;1.10;;;21.10;40.00;;;;;;4999332;28;20072;-63
2022/03/13 04:00:30;;;;;;;3.25;1.30;;;21.10;40.00;;;;;;5002021;28;20486;-66
2022/03/13 04:02:55;;;;;;;1.90;1.20;;;21.10;40.00;;;;;;5002584;28;20116;-66
2022/03/13 04:05:22;;;;;;;2.38;1.30;;;21.10;40.00;;;;;;5002990;28;20030;-67
2022/03/13 04:07:47;;;;;;;1.65;1.10;;;21.10;40.10;;;;;;4999878;28;20072;-66
2022/03/13 04:10:13;;;;;;;2.10;1.40;;;21.10;40.10;;;;;;4998014;28;20025;-62
2022/03/13 04:12:39;;;;;;;2.15;1.38;;;21.10;40.00;;;;;;4999014;28;20094;-67
2022/03/13 04:15:05;;;;;;;1.83;1.20;;;21.10;40.10;;;;;;5002441;28;20463;-68
2022/03/13 04:17:31;;;;;;;2.50;1.30;;;21.00;40.00;;;;;;5002909;28;20038;-66
2022/03/13 04:19:58;;;;;;;2.15;1.20;;;21.10;40.00;;;;;;5002694;28;20188;-64
2022/03/13 04:22:23;;;;;;;1.80;1.20;;;21.00;40.00;;;;;;5002812;28;20116;-66
2022/03/13 04:24:49;;;;;;;1.90;1.30;;;21.00;40.00;;;;;;5000885;28;20465;-66
2022/03/13 04:27:15;;;;;;;1.77;1.05;;;21.00;40.00;;;;;;4998886;28;20030;-68
2022/03/13 04:29:41;;;;;;;1.67;1.15;;;21.10;40.10;;;;;;5005076;28;20403;-68
2022/03/13 04:32:08;;;;;;;2.10;1.13;;;21.00;40.60;;;;;;5012643;28;20080;-67
2022/03/13 04:34:33;;;;;;;1.73;1.10;;;21.00;40.00;;;;;;5005653;28;20113;-68
2022/03/13 04:37:00;;;;;;;1.90;1.20;;;21.00;40.00;;;;;;5006520;28;20485;-68
2022/03/13 04:39:26;;;;;;;1.52;1.05;;;21.00;40.10;;;;;;5003417;28;20376;-64
2022/03/13 04:41:51;;;;;;;1.80;1.10;;;21.00;40.10;;;;;;5005227;28;20053;-67
2022/03/13 04:44:18;;;;;;;1.70;1.10;;;21.00;40.10;;;;;;5005253;28;20053;-66
2022/03/13 04:46:43;;;;;;;2.00;1.25;;;21.00;40.10;;;;;;5006309;28;20103;-67
2022/03/13 04:49:09;;;;;;;1.83;1.00;;;20.90;40.10;;;;;;5006961;28;20456;-68
2022/03/13 04:51:36;;;;;;;1.80;1.00;;;20.90;40.10;;;;;;5003974;28;20076;-63
2022/03/13 04:54:02;;;;;;;2.10;1.10;;;21.00;40.10;;;;;;5004044;28;20022;-67
2022/03/13 04:56:28;;;;;;;1.40;1.00;;;20.90;40.00;;;;;;5004519;28;20100;-68
2022/03/13 04:58:53;;;;;;;1.67;1.20;;;20.90;40.10;;;;;;5003588;28;20108;-63
2022/03/13 05:01:19;;;;;;;1.80;1.20;;;20.90;40.10;;;;;;5003544;28;20398;-68
2022/03/13 05:03:45;;;;;;;1.73;1.10;;;20.90;40.10;;;;;;5005080;28;20228;-66
2022/03/13 05:06:12;;;;;;;1.67;1.00;;;20.90;40.10;;;;;;5005006;28;20461;-67
2022/03/13 05:08:37;;;;;;;1.83;1.20;;;20.90;40.10;;;;;;5003743;28;20018;-66
2022/03/13 05:11:07;;;;;;;1.48;1.00;;;20.90;40.10;;;;;;5003468;28;20111;-63
2022/03/13 05:13:33;;;;;;;1.60;1.00;;;20.90;40.20;;;;;;5004727;28;20029;-64
2022/03/13 05:15:59;;;;;;;1.92;1.10;;;20.90;40.10;;;;;;5005674;28;20046;-67
2022/03/13 05:18:25;;;;;;;2.25;1.20;;;20.90;40.10;;;;;;5003540;28;20033;-66
2022/03/13 05:20:50;;;;;;;1.83;0.98;;;20.90;40.20;;;;;;5007338;28;20105;-67
2022/03/13 05:23:16;;;;;;;2.00;1.05;;;20.90;40.20;;;;;;5002770;28;20183;-66
2022/03/13 05:25:42;;;;;;;3.67;1.00;;;20.90;40.20;;;;;;5006324;28;20034;-67
2022/03/13 05:28:09;;;;;;;2.00;1.00;;;20.90;40.20;;;;;;5002787;28;20573;-67
2022/03/13 05:30:39;;;;;;;1.75;1.10;;;20.80;40.20;;;;;;5004874;28;20080;-67
2022/03/13 05:33:06;;;;;;;1.63;1.00;;;20.80;40.20;;;;;;5003508;28;20025;-63
2022/03/13 05:35:32;;;;;;;1.23;0.90;;;20.90;40.20;;;;;;5007241;28;20026;-66
2022/03/13 05:37:58;;;;;;;1.83;1.10;;;20.90;40.70;;;;;;5005061;28;20104;-68
2022/03/13 05:40:24;;;;;;;1.80;1.20;;;20.80;40.20;;;;;;5004353;28;20022;-68
2022/03/13 05:42:56;;;;;;;1.27;1.00;;;20.80;40.30;;;;;;5002333;28;20026;-68
2022/03/13 05:45:25;;;;;;;1.88;1.10;;;20.80;40.30;;;;;;5003850;28;20351;-67
2022/03/13 05:47:57;;;;;;;1.52;1.20;;;20.80;40.20;;;;;;5005294;28;20030;-67
2022/03/13 05:50:24;;;;;;;1.50;1.10;;;20.80;40.20;;;;;;5005153;28;20121;-68
2022/03/13 05:52:50;;;;;;;1.33;0.90;;;20.80;40.20;;;;;;5000619;28;20494;-63
2022/03/13 05:55:17;;;;;;;1.83;1.30;;;20.80;40.20;;;;;;5003812;28;20216;-66
2022/03/13 05:57:43;;;;;;;1.50;1.00;;;20.80;40.20;;;;;;5001829;28;20471;-67
2022/03/13 06:00:12;;;;;;;1.00;0.90;;;20.80;40.30;;;;;;5003139;28;20057;-67
2022/03/13 06:02:40;;;;;;;1.75;1.00;;;20.80;40.30;;;;;;5002981;28;20032;-66
2022/03/13 06:05:08;;;;;;;1.58;1.00;;;20.80;40.30;;;;;;5004401;28;20037;-64
2022/03/13 06:07:34;;;;;;;1.80;1.05;;;20.70;40.30;;;;;;5006443;28;20127;-67
2022/03/13 06:10:03;;;;;;;1.80;1.10;;;20.70;40.30;;;;;;4999816;28;20045;-63
2022/03/13 06:12:32;;;;;;;1.50;1.00;;;20.70;40.30;;;;;;5000279;28;20098;-68
2022/03/13 06:15:00;;;;;;;1.33;0.93;;;20.70;40.30;;;;;;5003570;28;20038;-68
2022/03/13 06:17:27;;;;;;;1.30;0.90;;;20.70;40.30;;;;;;5003993;28;20034;-68
2022/03/13 06:19:53;;;;;;;1.48;0.93;;;20.70;40.30;;;;;;5002907;28;20037;-67
2022/03/13 06:22:19;;;;;;;1.85;1.10;;;20.70;40.30;;;;;;5002811;28;20033;-66
2022/03/13 06:24:45;;;;;;;1.45;0.90;;;20.70;40.30;;;;;;5002409;28;20500;-67
2022/03/13 06:27:11;;;;;;;1.33;1.02;;;20.70;40.30;;;;;;5009467;28;20037;-64
2022/03/13 06:29:38;;;;;;;1.40;0.90;;;20.70;40.30;;;;;;5001824;28;20188;-67
2022/03/13 06:32:04;;;;;;;1.45;1.00;;;20.70;40.80;;;;;;5001371;28;20030;-67
2022/03/13 06:34:30;;;;;;;1.48;0.98;;;20.70;40.30;;;;;;5003955;28;20065;-63
2022/03/13 06:36:56;;;;;;;1.15;0.80;;;20.70;40.30;;;;;;5021039;28;20116;-68
2022/03/13 06:39:22;;;;;;;1.15;0.90;;;20.70;40.30;;;;;;5001358;28;20041;-67
2022/03/13 06:41:48;;;;;;;1.35;0.85;;;20.70;40.30;;;;;;4998225;28;20052;-66
2022/03/13 06:44:14;;;;;;;1.35;1.00;;;20.70;40.30;;;;;;5003736;28;20048;-67
2022/03/13 06:46:39;;;;;;;1.80;1.10;;;20.70;40.30;;;;;;4996278;28;20049;-68
2022/03/13 06:49:05;;;;;;;1.35;0.80;;;20.70;40.30;;;;;;4994105;28;20033;-68
2022/03/13 06:51:32;;;;;;;1.40;0.90;;;20.70;40.30;;;;;;4999482;28;20025;-64
2022/03/13 06:53:58;;;;;;;1.17;0.90;;;20.60;40.20;;;;;;5003453;28;20034;-67
2022/03/13 06:56:24;;;;;;;1.35;0.90;;;20.60;40.20;;;;;;4996130;28;20041;-67
2022/03/13 06:58:50;;;;;;;1.63;0.90;;;20.60;40.30;;;;;;4999900;28;20155;-68
2022/03/13 07:01:16;;;;;;;1.40;0.90;;;20.60;40.20;;;;;;5001339;28;20132;-68
2022/03/13 07:03:42;;;;;;;1.45;1.05;;;20.60;40.20;;;;;;5000239;28;20117;-67
2022/03/13 07:06:08;;;;;;;1.60;1.00;;;20.60;40.20;;;;;;5004438;28;20030;-68
2022/03/13 07:08:34;;;;;;;1.27;0.90;;;20.60;40.20;;;;;;5000911;28;20041;-64
2022/03/13 07:11:01;;;;;;;1.33;0.90;;;20.60;40.30;;;;;;5001697;28;20076;-67
2022/03/13 07:13:32;;;;;;;1.50;1.00;;;20.60;40.30;;;;;;5001771;28;20098;-68
2022/03/13 07:16:03;;;;;;;1.40;0.90;;;20.60;40.30;;;;;;4997100;28;20057;-63
2022/03/13 07:18:30;;;;;;;1.30;0.82;;;20.60;40.20;;;;;;4999591;28;20044;-66
2022/03/13 07:20:55;;;;;;;1.60;0.90;;;20.60;40.30;;;;;;5002797;28;20526;-68
2022/03/13 07:23:22;;;;;;;1.35;1.00;;;20.60;40.30;;;;;;4995476;28;20036;-68
2022/03/13 07:25:49;;;;;;;2.33;1.33;;;20.60;40.20;;;;;;5004351;28;20084;-68
2022/03/13 07:28:14;;;;;;;1.30;0.90;;;20.60;40.30;;;;;;5003217;28;20044;-67
2022/03/13 07:30:40;;;;;;;1.58;1.00;;;20.60;40.30;;;;;;5016900;28;20478;-67
2022/03/13 07:33:06;;;;;;;1.80;0.98;;;20.60;40.30;;;;;;5001959;28;20025;-67
2022/03/13 07:35:31;;;;;;;1.25;0.90;;;20.60;40.30;;;;;;5004804;28;20514;-63
2022/03/13 07:37:57;;;;;;;1.48;1.00;;;20.60;40.30;;;;;;5002506;28;20053;-64
2022/03/13 07:40:22;;;;;;;1.25;0.93;;;20.60;40.40;;;;;;5002428;28;20598;-63
2022/03/13 07:42:48;;;;;;;1.42;0.93;;;20.60;40.90;;;;;;5001271;28;20384;-67
2022/03/13 07:45:15;;;;;;;1.10;0.90;;;20.50;40.30;;;;;;5002423;28;20037;-68
2022/03/13 07:47:41;;;;;;;1.48;1.00;;;20.60;40.30;;;;;;5002565;28;20034;-67
2022/03/13 07:50:07;;;;;;;1.40;0.88;;;20.50;40.20;;;;;;5004283;28;20104;-65
2022/03/13 07:52:33;;;;;;;0.80;0.80;;;20.50;40.20;;;;;;4995536;28;20490;-64
2022/03/13 07:54:59;;;;;;;2.15;1.00;;;20.50;40.20;;;;;;5001320;28;20018;-67
2022/03/13 07:57:25;;;;;;;1.52;0.90;;;20.50;40.20;;;;;;4999883;28;20061;-67
2022/03/13 07:59:50;;;;;;;1.40;1.00;;;20.50;40.10;;;;;;5003595;28;20531;-67
2022/03/13 08:02:16;;;;;;;1.75;0.93;;;20.50;40.10;;;;;;4998819;28;20390;-63
2022/03/13 08:04:42;;;;;;;1.27;1.00;;;20.50;40.10;;;;;;4997126;28;20025;-68
2022/03/13 08:07:07;;;;;;;1.50;1.10;;;20.50;40.00;;;;;;4998425;28;20038;-67
2022/03/13 08:09:34;;;;;;;1.75;1.00;;;20.50;40.00;;;;;;4997987;28;20027;-66
2022/03/13 08:12:00;;;;;;;1.50;1.02;;;20.50;39.90;;;;;;4997345;28;20046;-68
2022/03/13 08:14:26;;;;;;;1.52;1.00;;;20.50;39.90;;;;;;4997361;28;20028;-67
2022/03/13 08:16:52;;;;;;;1.23;0.90;;;20.50;39.90;;;;;;5001752;28;20033;-67
2022/03/13 08:19:18;;;;;;;1.48;0.90;;;20.50;39.80;;;;;;5000493;28;20045;-68
2022/03/13 08:21:44;;;;;;;1.33;1.00;;;20.50;39.80;;;;;;4999898;28;20076;-67
2022/03/13 08:24:10;;;;;;;1.15;0.82;;;20.50;39.80;;;;;;5000773;28;20066;-63
2022/03/13 08:26:39;;;;;;;1.52;1.00;;;20.50;39.70;;;;;;4998940;28;20080;-67
2022/03/13 08:29:06;;;;;;;;;;;20.50;39.80;;;;;;4999512;28;20022;-68
2022/03/13 08:31:33;;;;;;;1.85;1.00;;;20.50;39.80;;;;;;5001301;28;19918;-64
2022/03/13 08:34:07;;;;;;;1.52;1.00;;;20.50;39.90;;;;;;5002313;28;20022;-64
2022/03/13 08:36:35;;;;;;;1.42;1.05;;;20.50;39.90;;;;;;4994322;28;20033;-67
2022/03/13 08:39:00;;;;;;;1.30;1.00;;;20.50;39.80;;;;;;4999366;28;20103;-68
2022/03/13 08:41:26;;;;;;;1.95;1.10;;;20.50;39.80;;;;;;4993654;28;20029;-68
2022/03/13 08:43:52;;;;;;;1.65;1.00;;;20.50;39.90;;;;;;4992759;28;20033;-68
2022/03/13 08:46:18;;;;;;;1.15;0.88;;;20.50;39.90;;;;;;4991478;28;20026;-64
2022/03/13 08:48:43;;;;;;;2.58;1.27;;;20.40;39.80;;;;;;5000149;28;20022;-65
2022/03/13 08:51:12;;;;;;;2.05;1.13;;;20.40;39.90;;;;;;4989627;28;20041;-63
2022/03/13 08:53:38;;;;;;;2.17;1.33;;;20.40;39.90;;;;;;4986107;28;20030;-67
2022/03/13 08:56:04;;;;;;;1.85;1.02;;;20.40;40.00;;;;;;4993278;28;20509;-67
2022/03/13 08:58:29;;;;;;;2.40;1.05;;;20.40;40.00;;;;;;4992934;28;20148;-64
2022/03/13 09:00:56;;;;;;;1.70;0.90;;;20.40;40.10;;;;;;4991218;28;20038;-67
2022/03/13 09:03:22;;;;;;;2.88;1.20;;;20.40;40.00;;;;;;4992949;28;20041;-67
2022/03/13 09:05:48;;;;;;;1.92;1.10;;;20.40;40.10;;;;;;4992997;28;20044;-66
2022/03/13 09:08:15;;;;;;;1.92;1.13;;;20.40;40.10;;;;;;4990358;28;20626;-65
2022/03/13 09:10:41;;;;;;;1.65;1.10;;;20.40;40.10;;;;;;4993023;28;20029;-61
2022/03/13 09:13:07;;;;;;;1.77;1.17;;;20.40;40.20;;;;;;4986028;28;20036;-64
2022/03/13 09:15:32;;;;;;;1.42;1.00;;;20.40;40.10;;;;;;4992157;28;20033;-67
2022/03/13 09:18:02;;;;;;;1.60;1.10;;;20.40;40.20;;;;;;5000893;28;20884;-68
2022/03/13 09:20:28;;;;;;;1.70;1.00;;;20.40;40.20;;;;;;4995229;28;20071;-67
2022/03/13 09:22:54;;;;;;;1.90;1.17;;;20.40;40.20;;;;;;4990653;28;20133;-67
2022/03/13 09:25:21;;;;;;;1.77;1.10;;;20.40;40.30;;;;;;4994829;28;20460;-67
2022/03/13 09:27:48;;;;;;;2.45;1.10;;;20.40;40.30;;;;;;4996122;28;20033;-66
2022/03/13 09:30:14;;;;;;;2.42;1.00;;;20.40;40.30;;;;;;4995901;28;20022;-63
2022/03/13 09:32:40;;;;;;;3.17;1.25;;;20.40;40.30;;;;;;4997252;28;20022;-64
2022/03/13 09:35:07;;;;;;;2.00;1.10;;;20.40;40.30;;;;;;4997971;28;20679;-66
2022/03/13 09:37:32;;;;;;;2.25;1.13;;;20.40;40.30;;;;;;4996125;28;20058;-67
2022/03/13 09:39:58;;;;;;;2.55;1.10;;;20.40;40.30;;;;;;4996162;28;20113;-66
2022/03/13 09:42:24;;;;;;;1.88;1.13;;;20.40;40.40;;;;;;4994412;28;20030;-66
2022/03/13 09:44:50;;;;;;;2.22;1.30;;;20.40;40.40;;;;;;4996050;28;20390;-65
2022/03/13 09:47:15;;;;;;;2.28;1.10;;;20.40;40.40;;;;;;4997716;28;20359;-67
2022/03/13 09:49:42;;;;;;;2.33;1.20;;;20.40;40.40;;;;;;4997628;28;20136;-66
2022/03/13 09:52:09;;;;;;;2.00;1.13;;;20.40;40.50;;;;;;4999584;28;20045;-67
2022/03/13 09:54:34;;;;;;;2.10;1.23;;;20.40;40.50;;;;;;5010447;28;20018;-65
2022/03/13 09:57:04;;;;;;;2.80;1.20;;;20.40;40.50;;;;;;4997596;28;20038;-68
2022/03/13 09:59:31;;;;;;;2.65;1.23;;;20.40;40.50;;;;;;4997601;28;20042;-66
2022/03/13 10:01:56;;;;;;;1.83;1.10;;;20.40;40.50;;;;;;4996679;28;20049;-67
2022/03/13 10:04:22;;;;;;;3.42;1.40;;;20.40;40.60;;;;;;4997705;28;20033;-67
2022/03/13 10:07:06;;;;;;;2.45;1.35;;;20.40;40.60;;;;;;4996455;28;20049;-68
2022/03/13 10:09:33;;;;;;;1.80;1.10;;;20.40;40.70;;;;;;4996507;28;20056;-67
2022/03/13 10:12:10;;;;;;;3.08;1.45;;;20.40;40.70;;;;;;4995985;28;20091;-68
2022/03/13 10:15:00;;;;;;;2.95;1.27;;;20.40;40.80;;;;;;4997082;28;20061;-68
2022/03/13 10:17:28;;;;;;;3.92;1.35;;;20.40;40.90;;;;;;4997182;28;20029;-68
2022/03/13 10:19:56;;;;;;;4.95;1.45;;;20.40;40.90;;;;;;4999107;28;20034;-68
2022/03/13 10:22:30;;;;;;;2.90;1.70;;;20.40;41.00;;;;;;4995964;28;20034;-65
2022/03/13 10:24:55;;;;;;;2.25;1.20;;;20.40;41.10;;;;;;4997780;28;20034;-66
2022/03/13 10:27:21;;;;;;;3.17;1.42;;;20.40;41.10;;;;;;4996541;28;20944;-67
2022/03/13 10:29:47;;;;;;;3.15;1.42;;;20.40;41.20;;;;;;4997251;28;20129;-68
2022/03/13 10:32:14;;;;;;;2.65;1.20;;;20.40;41.20;;;;;;4993001;28;20065;-67
2022/03/13 10:34:40;;;;;;;2.55;1.10;;;20.40;41.50;;;;;;4998987;28;20389;-67
2022/03/13 10:37:06;;;;;;;3.00;1.30;;;20.40;41.60;;;;;;4996671;28;20034;-68
2022/03/13 10:39:34;;;;;;;2.80;1.13;;;20.40;41.60;;;;;;4995305;28;20089;-67
2022/03/13 10:42:03;;;;;;;2.90;1.33;;;20.40;41.70;;;;;;4993486;28;20456;-67
2022/03/13 10:44:34;;;;;;;;;;;20.40;41.90;;;;;;4996707;28;20046;-67
2022/03/13 10:47:05;;;;;;;2.85;1.35;;;20.50;42.20;;;;;;4993985;28;19987;-68
2022/03/13 10:49:42;;;;;;;3.05;1.10;;;20.50;42.30;;;;;;4996155;28;20061;-66
2022/03/13 10:52:22;;;;;;;3.53;1.50;;;20.40;42.40;;;;;;4994215;28;20030;-67
2022/03/13 10:54:48;;;;;;;2.60;1.25;;;20.50;42.60;;;;;;4996527;28;20076;-66
2022/03/13 10:57:14;;;;;;;3.20;1.50;;;20.50;43.50;;;;;;4995258;28;20505;-66
2022/03/13 10:59:41;;;;;;;3.28;1.27;;;20.50;43.20;;;;;;4996897;28;20081;-67
2022/03/13 11:02:29;;;;;;;3.70;1.50;;;20.50;43.50;;;;;;4989780;28;20480;-67
2022/03/13 11:04:57;;;;;;;4.38;1.50;;;20.50;43.50;;;;;;4994070;28;20050;-66
2022/03/13 11:07:26;;;;;;;3.65;1.40;;;20.60;43.60;;;;;;4994263;28;20030;-66
2022/03/13 11:09:52;;;;;;;;;;;20.60;43.70;;;;;;4994381;28;20458;-68
2022/03/13 11:12:21;;;;;;;3.70;1.65;;;20.60;43.70;;;;;;4992692;28;20017;-67
2022/03/13 11:14:49;;;;;;;3.38;1.35;;;20.70;43.60;;;;;;4993386;28;20474;-63
2022/03/13 11:17:18;;;;;;;3.22;1.50;;;20.70;43.30;;;;;;4995044;28;20464;-66
2022/03/13 11:19:46;;;;;;;3.15;1.45;;;20.70;43.10;;;;;;4992856;28;20034;-64
2022/03/13 11:22:16;;;;;;;3.10;1.10;;;20.80;43.10;;;;;;4995202;28;20080;-64
2022/03/13 11:24:42;;;;;;;2.25;1.20;;;20.80;42.90;;;;;;4992981;28;20023;-65
2022/03/13 11:27:10;;;;;;;2.50;1.17;;;20.80;42.80;;;;;;4992288;28;20111;-67
2022/03/13 11:29:45;;;;;;;3.78;1.48;;;20.80;42.60;;;;;;4992016;28;20030;-67
2022/03/13 11:32:50;;;;;;;1.98;1.02;;;20.80;42.60;;;;;;4994304;28;20038;-68
2022/03/13 11:35:18;;;;;;;3.25;1.30;;;20.90;42.50;;;;;;4914768;29;21246;-68
2022/03/13 11:38:10;;;;;;;2.65;1.23;;;20.90;42.40;;;;;;4932154;28;20513;-67
2022/03/13 11:40:37;;;;;;;2.50;1.25;;;21.00;42.40;;;;;;4964382;28;20189;-68
2022/03/13 11:43:14;;;;;;;3.58;1.50;;;21.00;42.30;;;;;;4991147;28;20062;-67
2022/03/13 11:45:42;;;;;;;3.20;1.30;;;21.00;42.30;;;;;;4994774;28;20354;-68
2022/03/13 11:48:14;;;;;;;4.15;1.30;;;21.00;42.30;;;;;;4991975;28;20033;-70
2022/03/13 11:50:58;;;;;;;1.85;1.00;;;21.10;42.30;;;;;;4993634;28;20146;-69
2022/03/13 11:53:25;;;;;;;2.60;1.20;;;21.00;42.20;;;;;;4991966;28;20038;-69
2022/03/13 11:55:57;;;;;;;2.15;1.10;;;21.10;42.30;;;;;;5001441;28;20071;-69
2022/03/13 11:58:41;;;;;;;2.15;1.05;;;21.10;42.30;;;;;;4992029;28;20041;-69
2022/03/13 12:01:08;;;;;;;3.78;1.25;;;21.10;42.20;;;;;;5007348;28;20038;-67
2022/03/13 12:03:34;;;;;;;2.33;1.20;;;21.10;42.10;;;;;;4990135;28;20153;-68
2022/03/13 12:06:00;;;;;;;2.53;1.48;;;21.10;42.10;;;;;;4994107;28;20133;-67
2022/03/13 12:09:18;;;;;;;2.00;1.30;;;21.20;41.90;;;;;;4992258;28;20604;-66
2022/03/13 12:11:46;;;;;;;3.33;1.40;;;21.20;41.80;;;;;;4956399;28;20034;-64
2022/03/13 12:14:17;;;;;;;2.88;1.17;;;21.30;41.70;;;;;;4988059;28;20448;-68
2022/03/13 12:16:45;;;;;;;2.03;1.02;;;21.30;41.70;;;;;;4992602;28;20036;-68
2022/03/13 12:19:12;;;;;;;2.28;1.15;;;21.20;41.70;;;;;;4991820;28;20038;-67
2022/03/13 12:21:42;;;;;;;3.40;1.27;;;21.30;41.50;;;;;;4996739;28;20030;-66
2022/03/13 12:24:17;;;;;;;3.10;1.10;;;21.30;41.50;;;;;;4992254;28;20032;-64
2022/03/13 12:26:44;;;;;;;3.13;1.10;;;21.30;41.40;;;;;;4993751;28;20064;-67
2022/03/13 12:29:15;;;;;;;3.33;1.60;;;21.30;41.40;;;;;;4990283;28;20038;-65
2022/03/13 12:31:42;;;;;;;2.83;1.45;;;21.40;41.30;;;;;;4989074;28;20037;-68
2022/03/13 12:34:08;;;;;;;2.45;1.40;;;21.40;41.20;;;;;;4989365;28;20088;-67
2022/03/13 12:36:36;;;;;;;2.88;1.40;;;21.40;41.10;;;;;;4987256;28;20030;-66
2022/03/13 12:39:14;;;;;;;2.20;1.40;;;21.50;41.10;;;;;;4979363;28;20757;-67
2022/03/13 12:41:44;;;;;;;2.60;1.30;;;21.50;41.00;;;;;;4988159;28;20181;-66
2022/03/13 12:44:15;;;;;;;2.45;1.33;;;21.50;41.00;;;;;;4987787;28;20232;-67
2022/03/13 12:46:41;;;;;;;2.50;1.38;;;21.60;41.00;;;;;;4985411;28;20038;-68
2022/03/13 12:49:09;;;;;;;1.77;1.20;;;21.60;41.00;;;;;;4986140;28;20033;-68
2022/03/13 12:51:49;;;;;;;2.25;1.20;;;21.60;41.00;;;;;;4989839;28;20022;-68